createdAt,value
2022-09-18T00:01:38.620Z,10.00
2022-09-18T00:04:09.143Z,10.00
2022-09-18T00:06:39.259Z,10.00
2022-09-18T00:09:09.133Z,9.80
2022-09-18T00:11:40.550Z,9.80
2022-09-18T00:14:11.639Z,9.70
2022-09-18T00:16:40.795Z,9.80
2022-09-18T00:19:09.461Z,9.90
2022-09-18T00:21:37.999Z,9.90
2022-09-18T00:24:07.229Z,10.00
2022-09-18T00:26:36.066Z,10.00
2022-09-18T00:29:06.637Z,10.00
2022-09-18T00:31:36.465Z,9.90
2022-09-18T00:34:07.730Z,9.80
2022-09-18T00:36:36.642Z,9.80
2022-09-18T00:39:05.755Z,9.90
2022-09-18T00:41:35.948Z,9.90
2022-09-18T00:44:39.850Z,10.00
2022-09-18T00:47:24.380Z,9.90
2022-09-18T00:49:57.229Z,9.90
2022-09-18T00:52:28.986Z,9.80
2022-09-18T00:55:01.969Z,9.70
2022-09-18T00:57:33.704Z,9.60
2022-09-18T01:00:06.659Z,9.60
2022-09-18T01:02:35.219Z,9.50
2022-09-18T01:05:03.842Z,9.50
2022-09-18T01:07:44.639Z,9.60
2022-09-18T01:10:23.761Z,9.70
2022-09-18T01:12:56.076Z,9.70
2022-09-18T01:15:32.281Z,9.50
2022-09-18T01:18:07.215Z,9.30
2022-09-18T01:20:53.678Z,9.40
2022-09-18T01:23:45.747Z,9.20
2022-09-18T01:26:25.391Z,9.20
2022-09-18T01:28:58.806Z,9.40
2022-09-18T01:31:31.269Z,9.40
2022-09-18T01:34:02.399Z,9.40
2022-09-18T01:36:34.170Z,9.40
2022-09-18T01:39:08.270Z,9.40
2022-09-18T01:41:38.766Z,9.30
2022-09-18T01:44:11.359Z,9.20
2022-09-18T01:46:41.409Z,9.10
2022-09-18T01:49:11.739Z,9.10
2022-09-18T01:51:45.751Z,9.00
2022-09-18T01:54:16.910Z,9.00
2022-09-18T01:56:47.579Z,9.00
2022-09-18T01:59:20.634Z,9.00
2022-09-18T02:01:51.197Z,9.00
2022-09-18T02:04:23.242Z,8.80
2022-09-18T02:06:57.563Z,8.80
2022-09-18T02:09:26.260Z,9.00
2022-09-18T02:11:58.584Z,8.90
2022-09-18T02:14:31.062Z,8.70
2022-09-18T02:17:04.597Z,8.80
2022-09-18T02:19:36.745Z,8.70
2022-09-18T02:22:08.195Z,8.70
2022-09-18T02:24:39.407Z,8.80
2022-09-18T02:27:09.304Z,8.90
2022-09-18T02:29:39.378Z,9.00
2022-09-18T02:32:07.862Z,9.00
2022-09-18T02:34:36.546Z,9.10
2022-09-18T02:37:29.737Z,8.90
2022-09-18T02:40:10.145Z,9.10
2022-09-18T02:42:44.994Z,9.10
2022-09-18T02:45:23.598Z,8.90
2022-09-18T02:48:10.666Z,8.70
2022-09-18T02:50:44.270Z,8.50
2022-09-18T02:53:18.811Z,8.50
2022-09-18T02:55:50.427Z,8.60
2022-09-18T02:58:22.886Z,8.70
2022-09-18T03:00:53.485Z,8.80
2022-09-18T03:03:22.959Z,9.10
2022-09-18T03:05:51.414Z,9.40
2022-09-18T03:08:19.903Z,9.60
2022-09-18T03:10:48.381Z,9.70
2022-09-18T03:13:17.017Z,9.70
2022-09-18T03:15:45.532Z,9.70
2022-09-18T03:18:15.454Z,9.70
2022-09-18T03:20:43.962Z,9.70
2022-09-18T03:23:12.433Z,9.80
2022-09-18T03:25:40.859Z,9.80
2022-09-18T03:28:09.303Z,9.70
2022-09-18T03:30:37.699Z,9.60
2022-09-18T03:33:06.107Z,9.70
2022-09-18T03:35:35.874Z,9.50
2022-09-18T03:38:04.265Z,9.50
2022-09-18T03:40:33.267Z,9.50
2022-09-18T03:43:01.738Z,9.50
2022-09-18T03:45:30.143Z,9.70
2022-09-18T03:47:58.671Z,9.50
2022-09-18T03:50:28.401Z,9.60
2022-09-18T03:52:58.209Z,9.60
2022-09-18T03:55:27.391Z,9.60
2022-09-18T03:57:57.328Z,9.50
2022-09-18T04:00:26.055Z,9.60
2022-09-18T04:02:54.517Z,9.40
2022-09-18T04:05:23.112Z,9.20
2022-09-18T04:07:51.570Z,9.30
2022-09-18T04:10:22.670Z,9.40
2022-09-18T04:12:51.088Z,9.50
2022-09-18T04:15:20.858Z,9.50
2022-09-18T04:17:49.278Z,9.70
2022-09-18T04:20:17.831Z,9.70
2022-09-18T04:22:46.361Z,9.70
2022-09-18T04:25:16.982Z,9.70
2022-09-18T04:27:47.155Z,9.70
2022-09-18T04:30:15.846Z,9.80
2022-09-18T04:32:44.528Z,9.80
2022-09-18T04:35:13.530Z,9.70
2022-09-18T04:37:43.805Z,9.70
2022-09-18T04:40:12.793Z,9.50
2022-09-18T04:42:41.288Z,9.30
2022-09-18T04:45:12.053Z,9.40
2022-09-18T04:47:41.002Z,9.40
2022-09-18T04:50:10.998Z,9.10
2022-09-18T04:52:39.531Z,9.20
2022-09-18T04:55:08.726Z,9.30
2022-09-18T04:57:37.184Z,9.30
2022-09-18T05:00:07.443Z,9.30
2022-09-18T05:02:38.827Z,9.50
2022-09-18T05:05:07.837Z,9.60
2022-09-18T05:07:36.334Z,9.80
2022-09-18T05:10:05.607Z,10.00
2022-09-18T05:12:33.984Z,10.40
2022-09-18T05:15:02.403Z,10.60
2022-09-18T05:17:32.783Z,11.00
2022-09-18T05:20:03.097Z,11.30
2022-09-18T05:22:31.679Z,11.20
2022-09-18T05:25:00.090Z,10.60
2022-09-18T05:27:28.517Z,10.50
2022-09-18T05:29:57.023Z,10.30
2022-09-18T05:32:25.456Z,10.20
2022-09-18T05:34:53.972Z,10.20
2022-09-18T05:37:23.820Z,10.50
2022-09-18T05:39:52.387Z,11.00
2022-09-18T05:42:20.894Z,11.60
2022-09-18T05:44:49.282Z,12.10
2022-09-18T05:47:17.784Z,12.50
2022-09-18T05:49:46.187Z,12.50
2022-09-18T05:52:14.731Z,12.40
2022-09-18T05:54:44.497Z,12.20
2022-09-18T05:57:12.935Z,12.00
2022-09-18T05:59:42.670Z,11.70
2022-09-18T06:02:15.475Z,11.40
2022-09-18T06:04:44.097Z,11.20
2022-09-18T06:07:15.314Z,11.10
2022-09-18T06:09:45.113Z,11.00
2022-09-18T06:12:13.494Z,10.80
2022-09-18T06:14:41.965Z,10.70
2022-09-18T06:17:10.499Z,10.60
2022-09-18T06:19:39.066Z,10.50
2022-09-18T06:22:07.503Z,10.40
2022-09-18T06:24:35.882Z,10.30
2022-09-18T06:27:05.824Z,10.30
2022-09-18T06:29:34.556Z,10.20
2022-09-18T06:32:03.443Z,10.30
2022-09-18T06:34:35.488Z,10.30
2022-09-18T06:37:06.894Z,10.30
2022-09-18T06:39:35.363Z,10.30
2022-09-18T06:42:05.327Z,10.20
2022-09-18T06:44:34.149Z,10.20
2022-09-18T06:47:02.590Z,10.10
2022-09-18T06:49:31.088Z,10.10
2022-09-18T06:51:59.620Z,10.30
2022-09-18T06:54:28.063Z,10.60
2022-09-18T06:56:56.431Z,11.20
2022-09-18T06:59:26.323Z,11.80
2022-09-18T07:01:54.756Z,12.40
2022-09-18T07:04:23.215Z,13.00
2022-09-18T07:06:51.636Z,13.40
2022-09-18T07:09:20.114Z,13.70
2022-09-18T07:11:48.529Z,14.10
2022-09-18T07:14:17.014Z,14.40
2022-09-18T07:16:46.839Z,14.70
2022-09-18T07:19:15.303Z,14.90
2022-09-18T07:21:43.822Z,15.10
2022-09-18T07:24:12.508Z,15.30
2022-09-18T07:26:40.916Z,15.60
2022-09-18T07:29:10.240Z,15.90
2022-09-18T07:31:39.014Z,16.10
2022-09-18T07:34:09.387Z,16.30
2022-09-18T07:36:37.870Z,16.50
2022-09-18T07:39:06.420Z,16.70
2022-09-18T07:41:34.927Z,16.60
2022-09-18T07:44:03.783Z,16.70
2022-09-18T07:46:32.263Z,16.70
2022-09-18T07:49:00.685Z,16.70
2022-09-18T07:51:30.470Z,16.80
2022-09-18T07:53:58.986Z,16.80
2022-09-18T07:56:27.482Z,16.80
2022-09-18T07:58:55.926Z,16.70
2022-09-18T08:01:25.628Z,16.50
2022-09-18T08:03:54.116Z,16.50
2022-09-18T08:06:23.005Z,16.50
2022-09-18T08:08:55.095Z,16.40
2022-09-18T08:11:23.972Z,16.40
2022-09-18T08:13:52.687Z,16.30
2022-09-18T08:16:21.796Z,16.20
2022-09-18T08:18:50.378Z,16.30
2022-09-18T08:21:19.631Z,16.30
2022-09-18T08:23:48.047Z,16.10
2022-09-18T08:26:22.195Z,16.00
2022-09-18T08:28:50.989Z,15.90
2022-09-18T08:31:19.516Z,15.90
2022-09-18T08:33:48.004Z,16.00
2022-09-18T08:36:16.437Z,16.10
2022-09-18T08:38:44.861Z,16.20
2022-09-18T08:41:24.862Z,16.20
2022-09-18T08:44:03.023Z,16.20
2022-09-18T08:46:37.916Z,16.10
2022-09-18T08:49:21.663Z,16.10
2022-09-18T08:51:55.345Z,16.10
2022-09-18T08:54:33.383Z,16.30
2022-09-18T08:57:07.086Z,16.40
2022-09-18T08:59:38.871Z,16.40
2022-09-18T09:02:22.942Z,16.40
2022-09-18T09:04:54.765Z,16.50
2022-09-18T09:07:36.121Z,16.50
2022-09-18T09:10:13.560Z,16.60
2022-09-18T09:12:47.928Z,16.50
2022-09-18T09:15:26.158Z,16.40
2022-09-18T09:17:58.210Z,16.40
2022-09-18T09:20:36.786Z,16.30
2022-09-18T09:23:07.876Z,16.30
2022-09-18T09:25:40.465Z,16.20
2022-09-18T09:28:17.064Z,16.20
2022-09-18T09:30:47.439Z,16.30
2022-09-18T09:33:22.727Z,16.40
2022-09-18T09:35:53.887Z,16.50
2022-09-18T09:38:34.076Z,16.60
2022-09-18T09:41:11.508Z,16.70
2022-09-18T09:43:46.203Z,16.80
2022-09-18T09:46:21.563Z,16.80
2022-09-18T09:48:53.527Z,16.90
2022-09-18T09:51:32.187Z,16.80
2022-09-18T09:54:01.437Z,16.80
2022-09-18T09:56:34.063Z,16.80
2022-09-18T09:59:12.560Z,16.90
2022-09-18T10:01:45.031Z,17.10
2022-09-18T10:04:22.049Z,17.20
2022-09-18T10:06:54.779Z,17.20
2022-09-18T10:09:36.766Z,17.10
2022-09-18T10:12:10.254Z,17.10
2022-09-18T10:14:42.048Z,17.00
2022-09-18T10:17:12.609Z,17.00
2022-09-18T10:19:42.955Z,16.80
2022-09-18T10:22:16.962Z,16.80
2022-09-18T10:24:51.915Z,16.80
2022-09-18T10:27:21.011Z,16.90
2022-09-18T10:29:50.862Z,17.00
2022-09-18T10:32:34.339Z,17.10
2022-09-18T10:35:03.487Z,17.20
2022-09-18T10:37:42.177Z,17.20
2022-09-18T10:40:30.730Z,17.30
2022-09-18T10:43:00.544Z,17.30
2022-09-18T10:45:40.300Z,17.30
2022-09-18T10:48:14.877Z,17.20
2022-09-18T10:50:55.727Z,17.20
2022-09-18T10:53:38.655Z,17.30
2022-09-18T10:56:20.216Z,17.40
2022-09-18T10:58:49.043Z,17.50
2022-09-18T11:01:19.053Z,17.40
2022-09-18T11:03:49.729Z,17.30
2022-09-18T11:06:20.246Z,17.20
2022-09-18T11:08:50.266Z,17.20
2022-09-18T11:11:25.636Z,17.30
2022-09-18T11:13:58.606Z,17.40
2022-09-18T11:16:30.738Z,17.50
2022-09-18T11:19:07.329Z,17.60
2022-09-18T11:21:44.088Z,17.70
2022-09-18T11:24:20.803Z,17.80
2022-09-18T11:26:55.167Z,17.90
2022-09-18T11:29:54.788Z,17.90
2022-09-18T11:32:26.580Z,18.10
2022-09-18T11:34:59.410Z,18.20
2022-09-18T11:37:37.910Z,18.20
2022-09-18T11:40:17.175Z,18.20
2022-09-18T11:42:49.746Z,18.20
2022-09-18T11:45:46.501Z,18.10
2022-09-18T11:48:27.854Z,18.20
2022-09-18T11:51:01.615Z,18.10
2022-09-18T11:53:36.554Z,18.10
2022-09-18T11:56:08.359Z,18.00
2022-09-18T11:58:41.082Z,18.00
2022-09-18T12:01:18.867Z,18.00
2022-09-18T12:03:52.567Z,17.90
2022-09-18T12:06:27.495Z,17.80
2022-09-18T12:08:59.122Z,17.80
2022-09-18T12:11:33.330Z,17.80
2022-09-18T12:14:09.819Z,17.90
2022-09-18T12:16:45.954Z,17.80
2022-09-18T12:19:20.249Z,17.70
2022-09-18T12:21:54.274Z,17.70
2022-09-18T12:24:22.904Z,17.70
2022-09-18T12:27:03.317Z,17.60
2022-09-18T12:29:42.677Z,17.60
2022-09-18T12:32:22.886Z,17.50
2022-09-18T12:34:57.242Z,17.40
2022-09-18T12:37:42.035Z,17.30
2022-09-18T12:40:40.060Z,17.30
2022-09-18T12:43:33.911Z,17.30
2022-09-18T12:46:27.597Z,17.30
2022-09-18T12:49:14.607Z,17.30
2022-09-18T12:51:46.606Z,17.20
2022-09-18T12:54:42.170Z,17.10
2022-09-18T12:57:20.957Z,17.20
2022-09-18T12:59:56.460Z,17.10
2022-09-18T13:02:37.047Z,17.00
2022-09-18T13:05:08.519Z,17.00
2022-09-18T13:07:41.314Z,17.00
2022-09-18T13:10:16.685Z,16.80
2022-09-18T13:12:49.737Z,16.70
2022-09-18T13:15:21.378Z,16.80
2022-09-18T13:17:56.960Z,16.80
2022-09-18T13:20:28.554Z,16.70
2022-09-18T13:22:58.692Z,16.70
2022-09-18T13:25:29.870Z,16.70
2022-09-18T13:27:58.906Z,16.70
2022-09-18T13:30:29.078Z,16.70
2022-09-18T13:32:58.474Z,16.70
2022-09-18T13:35:30.062Z,16.60
2022-09-18T13:38:07.935Z,16.60
2022-09-18T13:40:37.887Z,16.60
2022-09-18T13:43:36.959Z,16.60
2022-09-18T13:46:07.344Z,16.60
2022-09-18T13:48:42.107Z,16.60
2022-09-18T13:51:12.527Z,16.50
2022-09-18T13:53:43.581Z,16.50
2022-09-18T13:56:13.311Z,16.50
2022-09-18T13:58:53.409Z,16.50
2022-09-18T14:01:59.642Z,16.50
2022-09-18T14:05:08.119Z,16.50
2022-09-18T14:07:52.753Z,16.50
2022-09-18T14:10:29.025Z,16.50
2022-09-18T14:13:24.517Z,16.50
2022-09-18T14:15:56.061Z,16.50
2022-09-18T14:18:29.951Z,16.50
2022-09-18T14:21:14.546Z,16.40
2022-09-18T14:24:28.722Z,16.40
2022-09-18T14:27:05.734Z,16.40
2022-09-18T14:29:34.940Z,16.30
2022-09-18T14:32:03.806Z,16.30
2022-09-18T14:34:39.950Z,16.20
2022-09-18T14:37:26.401Z,16.20
2022-09-18T14:39:59.043Z,16.20
2022-09-18T14:42:33.273Z,16.10
2022-09-18T14:45:20.357Z,16.10
2022-09-18T14:47:50.023Z,16.10
2022-09-18T14:50:30.840Z,16.10
2022-09-18T14:53:01.359Z,16.10
2022-09-18T14:55:33.323Z,16.10
2022-09-18T14:58:06.600Z,16.10
2022-09-18T15:00:36.845Z,16.10
2022-09-18T15:03:08.758Z,16.10
2022-09-18T15:05:37.893Z,16.10
2022-09-18T15:08:08.890Z,16.10
2022-09-18T15:10:39.570Z,16.10
2022-09-18T15:13:12.244Z,16.10
2022-09-18T15:15:43.143Z,16.10
2022-09-18T15:18:23.614Z,16.10
2022-09-18T15:20:54.431Z,16.10
2022-09-18T15:23:30.676Z,16.00
2022-09-18T15:26:02.765Z,16.00
2022-09-18T15:28:34.639Z,16.00
2022-09-18T15:31:05.731Z,16.00
2022-09-18T15:33:35.733Z,16.00
2022-09-18T15:36:05.389Z,16.00
2022-09-18T15:38:40.393Z,15.90
2022-09-18T15:41:37.395Z,15.90
2022-09-18T15:44:07.719Z,15.90
2022-09-18T15:46:38.036Z,15.90
2022-09-18T15:49:29.829Z,15.80
2022-09-18T15:51:58.277Z,15.80
2022-09-18T15:54:27.904Z,15.70
2022-09-18T15:56:58.170Z,15.80
2022-09-18T15:59:30.943Z,15.70
2022-09-18T16:02:00.017Z,15.60
2022-09-18T16:04:32.885Z,15.60
2022-09-18T16:07:03.310Z,15.50
2022-09-18T16:09:37.838Z,15.50
2022-09-18T16:12:28.393Z,15.50
2022-09-18T16:15:25.621Z,15.40
2022-09-18T16:17:59.281Z,15.30
2022-09-18T16:20:42.989Z,15.30
2022-09-18T16:23:30.242Z,15.30
2022-09-18T16:26:05.877Z,15.30
2022-09-18T16:28:36.525Z,15.30
2022-09-18T16:31:06.730Z,15.30
2022-09-18T16:33:36.088Z,15.20
2022-09-18T16:36:07.778Z,15.20
2022-09-18T16:38:36.609Z,15.20
2022-09-18T16:41:05.267Z,15.20
2022-09-18T16:43:33.835Z,15.20
2022-09-18T16:46:02.233Z,15.20
2022-09-18T16:48:32.805Z,15.20
2022-09-18T16:51:01.282Z,15.10
2022-09-18T16:53:31.207Z,15.10
2022-09-18T16:56:00.225Z,15.10
2022-09-18T16:58:29.872Z,15.00
2022-09-18T17:00:59.091Z,15.00
2022-09-18T17:03:29.151Z,15.00
2022-09-18T17:05:59.126Z,14.90
2022-09-18T17:08:28.073Z,14.80
2022-09-18T17:10:57.099Z,14.70
2022-09-18T17:13:26.210Z,14.70
2022-09-18T17:15:55.560Z,14.70
2022-09-18T17:18:26.031Z,14.70
2022-09-18T17:20:54.710Z,14.70
2022-09-18T17:23:24.574Z,14.70
2022-09-18T17:25:53.437Z,14.60
2022-09-18T17:28:21.869Z,14.60
2022-09-18T17:30:54.298Z,14.60
2022-09-18T17:33:22.812Z,14.60
2022-09-18T17:35:51.266Z,14.50
2022-09-18T17:38:19.807Z,14.50
2022-09-18T17:40:58.607Z,14.40
2022-09-18T17:43:27.032Z,14.40
2022-09-18T17:45:57.020Z,14.50
2022-09-18T17:48:26.471Z,14.50
2022-09-18T17:50:58.597Z,14.50
2022-09-18T17:53:27.158Z,14.50
2022-09-18T17:55:57.508Z,14.40
2022-09-18T17:58:26.152Z,14.40
2022-09-18T18:00:54.992Z,14.30
2022-09-18T18:03:24.155Z,14.30
2022-09-18T18:05:53.357Z,14.30
2022-09-18T18:08:21.998Z,14.30
2022-09-18T18:10:50.488Z,14.30
2022-09-18T18:13:20.339Z,14.20
2022-09-18T18:15:50.911Z,14.20
2022-09-18T18:18:19.659Z,14.20
2022-09-18T18:20:50.894Z,14.10
2022-09-18T18:23:19.643Z,14.10
2022-09-18T18:25:48.351Z,14.10
2022-09-18T18:28:16.807Z,14.10
2022-09-18T18:30:47.701Z,14.10
2022-09-18T18:33:16.198Z,14.10
2022-09-18T18:35:45.042Z,14.10
2022-09-18T18:38:13.850Z,14.00
2022-09-18T18:40:42.447Z,14.10
2022-09-18T18:43:14.139Z,14.00
2022-09-18T18:45:53.561Z,14.10
2022-09-18T18:48:22.324Z,14.10
2022-09-18T18:50:51.277Z,14.00
2022-09-18T18:53:20.485Z,14.00
2022-09-18T18:55:49.256Z,13.90
2022-09-18T18:58:17.712Z,13.80
2022-09-18T19:00:46.617Z,13.70
2022-09-18T19:03:16.599Z,13.70
2022-09-18T19:05:45.137Z,13.70
2022-09-18T19:08:14.106Z,13.70
2022-09-18T19:10:43.342Z,13.70
2022-09-18T19:13:11.790Z,13.70
2022-09-18T19:15:40.467Z,13.70
2022-09-18T19:18:10.557Z,13.70
2022-09-18T19:20:40.567Z,13.70
2022-09-18T19:23:13.175Z,13.70
2022-09-18T19:25:41.702Z,13.70
2022-09-18T19:28:10.273Z,13.70
2022-09-18T19:30:41.218Z,13.70
2022-09-18T19:33:15.109Z,13.70
2022-09-18T19:35:45.002Z,13.60
2022-09-18T19:38:19.306Z,13.50
2022-09-18T19:40:49.394Z,13.50
2022-09-18T19:43:23.491Z,13.50
2022-09-18T19:45:51.938Z,13.40
2022-09-18T19:48:22.945Z,13.30
2022-09-18T19:50:53.203Z,13.30
2022-09-18T19:53:22.174Z,13.30
2022-09-18T19:55:50.646Z,13.30
2022-09-18T19:58:19.526Z,13.30
2022-09-18T20:00:48.213Z,13.30
2022-09-18T20:03:16.847Z,13.20
2022-09-18T20:05:45.402Z,13.20
2022-09-18T20:08:15.167Z,13.10
2022-09-18T20:10:43.600Z,13.00
2022-09-18T20:13:13.190Z,13.00
2022-09-18T20:15:41.688Z,12.90
2022-09-18T20:18:10.221Z,12.80
2022-09-18T20:20:38.761Z,12.80
2022-09-18T20:23:07.632Z,12.80
2022-09-18T20:25:37.393Z,12.70
2022-09-18T20:28:05.822Z,12.70
2022-09-18T20:30:34.214Z,12.60
2022-09-18T20:33:04.174Z,12.60
2022-09-18T20:35:32.569Z,12.50
2022-09-18T20:38:04.517Z,12.50
2022-09-18T20:40:33.930Z,12.50
2022-09-18T20:43:04.341Z,12.50
2022-09-18T20:45:33.186Z,12.50
2022-09-18T20:48:06.921Z,12.40
2022-09-18T20:50:35.623Z,12.40
2022-09-18T20:53:06.135Z,12.50
2022-09-18T20:55:36.795Z,12.50
2022-09-18T20:58:06.567Z,12.50
2022-09-18T21:00:36.361Z,12.50
2022-09-18T21:03:06.857Z,12.50
2022-09-18T21:05:35.789Z,12.70
2022-09-18T21:08:04.198Z,12.60
2022-09-18T21:10:32.618Z,12.60
2022-09-18T21:13:01.296Z,12.80
2022-09-18T21:15:32.038Z,13.00
2022-09-18T21:18:01.118Z,13.20
2022-09-18T21:20:29.529Z,13.20
2022-09-18T21:23:15.386Z,13.20
2022-09-18T21:25:44.187Z,13.20
2022-09-18T21:28:13.258Z,13.30
2022-09-18T21:30:43.033Z,13.30
2022-09-18T21:33:14.117Z,13.20
2022-09-18T21:35:51.111Z,13.30
2022-09-18T21:38:19.614Z,13.30
2022-09-18T21:40:48.310Z,13.30
2022-09-18T21:43:17.251Z,13.20
2022-09-18T21:45:47.042Z,13.00
2022-09-18T21:48:15.459Z,12.90
2022-09-18T21:50:43.890Z,12.80
2022-09-18T21:53:12.342Z,12.80
2022-09-18T21:55:40.794Z,12.70
2022-09-18T21:58:09.349Z,12.60
2022-09-18T22:00:37.835Z,12.60
2022-09-18T22:03:08.685Z,12.60
2022-09-18T22:05:37.174Z,12.40
2022-09-18T22:08:05.594Z,12.40
2022-09-18T22:10:35.230Z,12.40
2022-09-18T22:13:03.670Z,12.50
2022-09-18T22:15:32.272Z,12.50
2022-09-18T22:18:00.669Z,12.60
2022-09-18T22:20:30.441Z,12.70
2022-09-18T22:22:58.933Z,12.70
2022-09-18T22:25:27.358Z,12.50
2022-09-18T22:27:55.754Z,12.30
2022-09-18T22:30:24.193Z,12.20
2022-09-18T22:32:52.713Z,12.20
2022-09-18T22:35:21.121Z,12.20
2022-09-18T22:37:50.986Z,12.20
2022-09-18T22:40:19.512Z,12.20
2022-09-18T22:42:47.946Z,12.30
2022-09-18T22:45:16.482Z,12.30
2022-09-18T22:47:44.999Z,12.30
2022-09-18T22:50:13.471Z,12.30
2022-09-18T22:52:42.102Z,12.30
2022-09-18T22:55:11.953Z,12.20
2022-09-18T22:57:40.371Z,12.00
2022-09-18T23:00:11.734Z,12.00
2022-09-18T23:02:44.048Z,11.90
2022-09-18T23:05:12.845Z,12.10
2022-09-18T23:07:41.315Z,12.30
2022-09-18T23:10:12.206Z,12.50
2022-09-18T23:12:40.820Z,12.70
2022-09-18T23:15:10.123Z,12.80
2022-09-18T23:17:38.702Z,12.80
2022-09-18T23:20:07.523Z,12.80
2022-09-18T23:22:35.991Z,12.90
2022-09-18T23:25:04.530Z,12.80
2022-09-18T23:27:34.297Z,12.80
2022-09-18T23:30:02.698Z,12.80
2022-09-18T23:32:31.092Z,12.90
2022-09-18T23:34:59.528Z,13.00
2022-09-18T23:37:27.909Z,12.90
2022-09-18T23:39:56.416Z,12.90
2022-09-18T23:42:26.312Z,12.80
2022-09-18T23:44:56.201Z,12.80
2022-09-18T23:47:24.633Z,12.70
2022-09-18T23:49:53.071Z,12.70
2022-09-18T23:52:21.479Z,12.70
2022-09-18T23:54:49.919Z,12.60
2022-09-18T23:57:18.437Z,12.60
2022-09-18T23:59:46.827Z,12.60
